Detall de PIREP

Printer-friendly versionPDF version

[2013/02/03 16:01:00]
Flight IATA:CT0001
Pilot Number:042
Company ICAO:CAT
Aircraft Type:C750/F
PAX:2
Departing Airport: LEAL
Destination Airport: LEBL
Alternate Airport:LEPA
Online: VATSIM
Route:SOPET UN608 MAT
Flight Level:F300
No Slew and time accel
No pause
Crash detect
Detect pilot in Cockpit between each 30 and 45 minutes
16:01 Zero fuel Weight: 22921 Lbs, Fuel Weight: 12965 Lbs
16:01 VATSIM:LEAL 031530Z 01004KT 310V060 9999 FEW040 17/M14 Q1024 NOSIG
16:01 VATSIM:LEBL 031530Z 31015KT CAVOK 14/M10 Q1020 NOSIG
16:01 VOICE CATALONIAN
16:10 Parking Brakes off
16:38 Take-off
16:38 Take off Weight: 35615 Lbs
16:38 Wind: 193º @ 005 Knots Heading: 100º
16:38 POS N38º 16´ 53´´ W000º 33´ 10´´
16:38 Gear Up: 153 Knots
16:38 Flaps:4 at 153 Knots
16:39 Flaps:3 at 170 Knots
16:39 Flaps:2 at 193 Knots
16:41 Flaps:0 at 240 Knots
16:52 TOC
16:52 Fuel Weight: 12028 Lb
16:53 Wind:302º@051 Knots Heading: 348º Ground Speed: 468 Knots Altitude 30209 ft
17:00 TOD
17:00 Fuel Weight: 11747 Lb
17:08 Wind:311º@053 Knots Heading: 069º Ground Speed: 431 Knots Altitude 21430 ft
17:23 Wind:209º@004 Knots Heading: 313º Ground Speed: 188 Knots Altitude 2952 ft
17:23 Gear Down: 162 Knots
17:23 Flaps:2 at 162 Knots
17:24 Flaps:3 at 209 Knots
17:24 Flaps:5 at 208 Knots
17:27 TouchDown:Rate -479 ft/min Speed: 112 Knots
17:27 VATSIM:LEBL 031700Z 31009KT CAVOK 13/M09 Q1021 NOSIG
17:27 Land
17:27 Wind:212º@004 Knots
17:27 Heading: 266º
17:27 Flight Duration: 00:49
17:27 Landing Weight: 34203 Lbs
17:27 POS N41º 17´ 54´´ E002º 04´ 52´´
17:33 Parking brakes on
17:33 Block to Block Duration: 01:23
17:33 Final Fuel: 11201 Lbls
17:33 Spent Fuel: 1763 Lbls
17:33 Flight Length: 283 NM
17:33 TOD Land Length: 141 NM

Exportar CSV

Powered by Drupal - Modified by Danger4k